createdAt,value
2023-04-02T00:02:22.024Z,11.90
2023-04-02T00:08:39.125Z,12.05
2023-04-02T00:14:46.696Z,14.77
2023-04-02T00:21:00.721Z,9.20
2023-04-02T00:27:03.579Z,4.80
2023-04-02T00:33:05.902Z,5.32
2023-04-02T00:39:16.144Z,4.75
2023-04-02T00:45:33.558Z,8.35
2023-04-02T00:51:44.787Z,3.03
2023-04-02T00:57:49.175Z,5.20
2023-04-02T01:04:01.988Z,3.47
2023-04-02T01:10:13.592Z,7.57
2023-04-02T01:16:31.521Z,5.18
2023-04-02T01:22:35.447Z,4.53
2023-04-02T01:28:51.961Z,3.78
2023-04-02T01:34:54.782Z,6.88
2023-04-02T01:41:08.277Z,3.22
2023-04-02T01:47:16.256Z,5.13
2023-04-02T01:53:21.164Z,3.45
2023-04-02T01:59:24.450Z,3.85
2023-04-02T02:05:33.144Z,5.63
2023-04-02T02:11:36.828Z,4.75
2023-04-02T02:17:39.673Z,3.55
2023-04-02T02:23:42.330Z,3.47
2023-04-02T02:29:46.723Z,4.28
2023-04-02T02:35:52.396Z,5.50
2023-04-02T02:42:25.267Z,3.80
2023-04-02T02:48:37.053Z,5.15
2023-04-02T02:54:48.891Z,6.00
2023-04-02T03:00:51.344Z,5.38
2023-04-02T03:06:56.181Z,7.38
2023-04-02T03:13:22.338Z,6.85
2023-04-02T03:19:36.544Z,7.30
2023-04-02T03:25:44.212Z,7.20
2023-04-02T03:31:54.353Z,9.63
2023-04-02T03:38:13.188Z,6.18
2023-04-02T03:44:26.536Z,12.52
2023-04-02T03:50:37.931Z,6.55
2023-04-02T03:56:40.670Z,5.88
2023-04-02T04:02:55.113Z,5.93
2023-04-02T04:09:10.535Z,7.10
2023-04-02T04:15:16.776Z,5.45
2023-04-02T04:21:37.922Z,5.30
2023-04-02T04:28:16.777Z,8.77
2023-04-02T04:34:47.004Z,6.03
2023-04-02T04:40:59.975Z,4.85
2023-04-02T04:47:35.256Z,6.20
2023-04-02T04:53:50.099Z,3.85
2023-04-02T05:00:12.967Z,9.68
2023-04-02T05:06:38.782Z,4.75
2023-04-02T05:12:44.353Z,4.63
2023-04-02T05:19:09.443Z,8.80
2023-04-02T05:25:29.722Z,6.13
2023-04-02T05:31:47.016Z,4.95
2023-04-02T05:37:49.974Z,6.57
2023-04-02T05:44:29.656Z,9.98
2023-04-02T05:50:37.877Z,5.93
2023-04-02T05:56:48.132Z,5.85
2023-04-02T06:03:07.770Z,9.73
2023-04-02T06:09:21.644Z,6.28
2023-04-02T06:15:25.765Z,4.35
2023-04-02T06:21:32.998Z,5.00
2023-04-02T06:27:35.868Z,9.05
2023-04-02T06:33:38.796Z,7.50
2023-04-02T06:39:42.345Z,4.55
2023-04-02T06:45:49.882Z,5.47
2023-04-02T06:52:28.764Z,3.53
2023-04-02T06:58:32.188Z,5.63
2023-04-02T07:04:35.330Z,4.28
2023-04-02T07:10:38.011Z,3.88
2023-04-02T07:16:41.901Z,2.92
2023-04-02T07:22:44.306Z,6.07
2023-04-02T07:28:46.911Z,5.60
2023-04-02T07:40:51.563Z,3.97
2023-04-02T07:46:56.897Z,6.38
2023-04-02T07:52:59.195Z,4.10
2023-04-02T07:59:01.637Z,4.53
2023-04-02T08:05:03.926Z,6.22
2023-04-02T08:11:06.932Z,3.58
2023-04-02T08:17:09.365Z,6.30
2023-04-02T08:23:17.613Z,6.88
2023-04-02T08:29:20.389Z,5.60
2023-04-02T08:41:32.469Z,17.95
2023-04-02T08:47:39.819Z,12.10
2023-04-02T08:53:42.554Z,12.43
2023-04-02T08:59:45.266Z,8.85
2023-04-02T09:11:55.843Z,9.03
2023-04-02T09:18:05.418Z,12.45
2023-04-02T09:24:13.512Z,8.25
2023-04-02T09:30:30.033Z,12.30
2023-04-02T09:36:37.994Z,10.10
2023-04-02T09:42:41.153Z,10.00
2023-04-02T09:48:54.870Z,9.50
2023-04-02T09:55:20.553Z,10.57
2023-04-02T10:01:45.155Z,23.27
2023-04-02T10:07:53.798Z,8.75
2023-04-02T10:14:21.979Z,12.27
2023-04-02T10:20:30.465Z,7.50
2023-04-02T10:26:35.704Z,15.55
2023-04-02T10:32:44.734Z,18.02
2023-04-02T10:38:53.182Z,16.80
2023-04-02T10:45:56.642Z,19.00
2023-04-02T10:52:00.252Z,16.13
2023-04-02T10:58:08.504Z,31.85
2023-04-02T11:04:30.108Z,15.55
2023-04-02T11:10:35.955Z,22.83
2023-04-02T11:16:42.476Z,67.35
2023-04-02T11:23:06.075Z,20.73
2023-04-02T11:29:20.401Z,22.02
2023-04-02T11:35:31.693Z,11.52
2023-04-02T11:41:56.607Z,8.88
2023-04-02T11:48:01.622Z,8.95
2023-04-02T11:54:04.845Z,13.90
2023-04-02T12:00:55.032Z,8.00
2023-04-02T12:07:11.574Z,16.10
2023-04-02T12:13:42.925Z,8.98
2023-04-02T12:19:51.656Z,14.63
2023-04-02T12:25:58.670Z,5.72
2023-04-02T12:32:01.388Z,6.57
2023-04-02T12:38:03.718Z,6.57
2023-04-02T12:44:28.058Z,5.85
2023-04-02T12:50:30.614Z,8.80
2023-04-02T12:56:32.860Z,3.83
2023-04-02T13:08:47.467Z,3.47
2023-04-02T13:20:57.754Z,6.20
2023-04-02T13:27:02.628Z,5.32
2023-04-02T13:33:05.146Z,8.25
2023-04-02T13:39:07.948Z,2.10
2023-04-02T13:45:39.550Z,1.42
2023-04-02T13:51:47.657Z,4.32
2023-04-02T13:57:50.800Z,4.72
2023-04-02T14:03:55.051Z,8.77
2023-04-02T14:10:23.052Z,8.40
2023-04-02T14:16:47.163Z,3.75
2023-04-02T14:23:01.013Z,2.35
2023-04-02T14:29:32.076Z,3.95
2023-04-02T14:35:42.409Z,3.38
2023-04-02T14:41:44.750Z,2.85
2023-04-02T14:48:00.008Z,8.90
2023-04-02T14:54:09.114Z,3.92
2023-04-02T15:00:24.524Z,9.80
2023-04-02T15:06:53.036Z,8.50
2023-04-02T15:12:57.648Z,10.75
2023-04-02T15:19:01.777Z,11.10
2023-04-02T15:25:50.341Z,14.43
2023-04-02T15:31:58.323Z,9.88
2023-04-02T15:38:15.938Z,5.78
2023-04-02T15:44:18.400Z,12.50
2023-04-02T15:50:51.184Z,5.78
2023-04-02T15:57:16.872Z,6.93
2023-04-02T16:03:34.385Z,8.52
2023-04-02T16:09:55.825Z,6.07
2023-04-02T16:16:19.500Z,10.73
2023-04-02T16:22:27.149Z,10.00
2023-04-02T16:29:06.832Z,8.77
2023-04-02T16:41:55.969Z,4.03
2023-04-02T16:48:06.541Z,8.27
2023-04-02T16:54:27.936Z,4.13
2023-04-02T17:00:39.138Z,5.45
2023-04-02T17:06:48.426Z,7.40
2023-04-02T17:13:14.475Z,10.45
2023-04-02T17:19:17.904Z,15.95
2023-04-02T17:25:26.158Z,9.05
2023-04-02T17:31:34.450Z,11.38
2023-04-02T17:37:47.072Z,6.45
2023-04-02T17:43:56.569Z,9.43
2023-04-02T17:50:11.342Z,27.63
2023-04-02T17:56:27.003Z,14.88
2023-04-02T18:02:47.680Z,17.83
2023-04-02T18:09:07.911Z,13.95
2023-04-02T18:15:18.790Z,66.63
2023-04-02T18:21:40.865Z,13.82
2023-04-02T18:28:10.237Z,15.25
2023-04-02T18:34:33.708Z,12.50
2023-04-02T18:46:57.119Z,14.40
2023-04-02T18:53:01.795Z,12.18
2023-04-02T18:59:19.150Z,12.77
2023-04-02T19:05:40.918Z,13.32
2023-04-02T19:11:43.214Z,20.35
2023-04-02T19:18:05.427Z,15.18
2023-04-02T19:24:14.002Z,16.55
2023-04-02T19:31:03.504Z,18.23
2023-04-02T19:37:18.245Z,14.80
2023-04-02T19:43:20.536Z,23.30
2023-04-02T19:49:35.080Z,20.52
2023-04-02T19:55:38.025Z,21.38
2023-04-02T20:01:41.202Z,22.83
2023-04-02T20:13:45.873Z,26.25
2023-04-02T20:19:48.132Z,28.73
2023-04-02T20:25:55.489Z,35.38
2023-04-02T20:31:57.937Z,29.33
2023-04-02T20:38:00.512Z,31.15
2023-04-02T20:50:06.069Z,29.67
2023-04-02T21:02:18.392Z,37.47
2023-04-02T21:08:21.655Z,29.92
2023-04-02T21:14:24.616Z,29.95
2023-04-02T21:20:27.460Z,30.58
2023-04-02T21:26:33.346Z,24.98
2023-04-02T21:32:36.752Z,29.25
2023-04-02T21:38:43.722Z,27.67
2023-04-02T21:44:46.324Z,22.23
2023-04-02T21:50:49.006Z,21.55
2023-04-02T22:02:54.332Z,21.00
2023-04-02T22:09:02.091Z,22.50
2023-04-02T22:15:04.919Z,22.10
2023-04-02T22:21:08.087Z,27.45
2023-04-02T22:27:10.458Z,25.02
2023-04-02T22:33:13.151Z,20.70
2023-04-02T22:45:21.234Z,22.17
2023-04-02T22:51:25.061Z,33.47
2023-04-02T22:57:27.891Z,28.15
2023-04-02T23:03:30.168Z,30.65
2023-04-02T23:09:32.428Z,30.13
2023-04-02T23:15:34.930Z,24.98
2023-04-02T23:21:37.227Z,21.60
2023-04-02T23:27:39.632Z,18.60
2023-04-02T23:33:42.160Z,20.10
2023-04-02T23:39:44.375Z,21.02
2023-04-02T23:45:50.836Z,22.15
2023-04-02T23:51:53.351Z,21.20
2023-04-02T23:57:55.768Z,29.25
